Wetterdaten: Woche 10.09.18 - 16.09.18 (KW37)
Datum Zeit Temp. Auen Feucht Auen Luftdruck Regen Richtung Windben
10.09.2018 00:00 11,6 C 92 % 1022,9 hPa 0,0 mm W 1,7 km/h (1 Bft)
10.09.2018 01:00 11,2 C 92 % 1022,9 hPa 0,0 mm W 1,6 km/h (1 Bft)
10.09.2018 02:00 10,6 C 92 % 1022,9 hPa 0,0 mm W 0,0 km/h (0 Bft)
10.09.2018 03:00 10,2 C 92 % 1023,0 hPa 0,0 mm W 0,0 km/h (0 Bft)
10.09.2018 04:00 9,6 C 92 % 1022,8 hPa 0,0 mm W 0,0 km/h (0 Bft)
10.09.2018 05:00 9,1 C 93 % 1022,7 hPa 0,0 mm W 0,8 km/h (0 Bft)
10.09.2018 06:00 8,8 C 93 % 1022,7 hPa 0,2 mm W 1,5 km/h (1 Bft)
10.09.2018 07:00 10,4 C 93 % 1023,3 hPa 0,0 mm W 1,6 km/h (1 Bft)
10.09.2018 08:00 14,6 C 89 % 1023,5 hPa 0,0 mm W 2,4 km/h (1 Bft)
10.09.2018 09:00 16,2 C 85 % 1023,8 hPa 0,0 mm O-SO 2,8 km/h (1 Bft)
10.09.2018 10:00 19,1 C 78 % 1023,6 hPa 0,0 mm O-SO 3,9 km/h (1 Bft)
10.09.2018 11:00 22,7 C 62 % 1023,5 hPa 0,0 mm W 5,9 km/h (2 Bft)
10.09.2018 12:00 25,6 C 46 % 1023,3 hPa 0,0 mm W 8,9 km/h (2 Bft)
10.09.2018 13:00 25,5 C 44 % 1023,1 hPa 0,0 mm W 10,6 km/h (2 Bft)
10.09.2018 14:00 25,0 C 47 % 1022,9 hPa 0,0 mm W 11,8 km/h (2 Bft)
10.09.2018 15:00 24,7 C 46 % 1022,7 hPa 0,0 mm W-NW 11,8 km/h (2 Bft)
10.09.2018 16:00 24,5 C 48 % 1022,3 hPa 0,0 mm W 10,9 km/h (2 Bft)
10.09.2018 17:00 23,9 C 52 % 1022,3 hPa 0,0 mm W 9,1 km/h (2 Bft)
10.09.2018 18:00 21,0 C 68 % 1022,5 hPa 0,0 mm W-NW 0,9 km/h (0 Bft)
10.09.2018 19:00 17,9 C 80 % 1022,8 hPa 0,0 mm W-NW 1,3 km/h (1 Bft)
10.09.2018 20:00 16,0 C 85 % 1023,6 hPa 0,0 mm W-NW 3,5 km/h (1 Bft)
10.09.2018 21:00 15,2 C 87 % 1024,1 hPa 0,0 mm W 4,3 km/h (1 Bft)
10.09.2018 22:00 14,6 C 88 % 1024,1 hPa 0,0 mm W-NW 3,2 km/h (1 Bft)
10.09.2018 23:00 14,0 C 89 % 1024,4 hPa 0,0 mm W-NW 3,6 km/h (1 Bft)
11.09.2018 00:00 13,0 C 90 % 1024,5 hPa 0,0 mm W-NW 1,6 km/h (1 Bft)
11.09.2018 01:00 12,6 C 91 % 1024,5 hPa 0,0 mm W-NW 3,1 km/h (1 Bft)
11.09.2018 02:00 12,9 C 90 % 1024,5 hPa 0,0 mm W-NW 2,1 km/h (1 Bft)
11.09.2018 03:00 12,3 C 91 % 1024,4 hPa 0,0 mm W-NW 1,2 km/h (1 Bft)
11.09.2018 04:00 11,7 C 91 % 1024,5 hPa 0,0 mm W-NW 1,6 km/h (1 Bft)
11.09.2018 05:00 11,0 C 91 % 1024,6 hPa 0,0 mm W-NW 0,9 km/h (0 Bft)
11.09.2018 06:00 10,4 C 92 % 1024,9 hPa 0,2 mm W-NW 1,5 km/h (1 Bft)
11.09.2018 07:00 11,0 C 92 % 1025,1 hPa 0,0 mm W-NW 1,7 km/h (1 Bft)
11.09.2018 08:00 14,4 C 87 % 1025,3 hPa 0,0 mm W-NW 0,4 km/h (0 Bft)
11.09.2018 09:00 17,7 C 79 % 1025,5 hPa 0,0 mm W-NW 2,0 km/h (1 Bft)
11.09.2018 10:00 20,9 C 71 % 1025,5 hPa 0,0 mm SO 4,0 km/h (1 Bft)
11.09.2018 11:00 24,4 C 51 % 1025,4 hPa 0,0 mm W 14,4 km/h (3 Bft)
11.09.2018 12:00 24,8 C 51 % 1025,2 hPa 0,0 mm W 11,0 km/h (2 Bft)
11.09.2018 13:00 25,4 C 51 % 1024,7 hPa 0,0 mm W 8,1 km/h (2 Bft)
11.09.2018 14:00 25,9 C 46 % 1024,4 hPa 0,0 mm W 13,0 km/h (3 Bft)
11.09.2018 15:00 25,8 C 45 % 1024,1 hPa 0,0 mm W 13,4 km/h (3 Bft)
11.09.2018 16:00 25,5 C 46 % 1023,8 hPa 0,0 mm W 9,8 km/h (2 Bft)
11.09.2018 17:00 24,0 C 54 % 1023,6 hPa 0,0 mm W 4,5 km/h (1 Bft)
11.09.2018 18:00 21,2 C 71 % 1023,5 hPa 0,0 mm W 1,5 km/h (1 Bft)
11.09.2018 19:00 19,1 C 78 % 1023,3 hPa 0,0 mm W 0,7 km/h (0 Bft)
11.09.2018 20:00 16,7 C 84 % 1023,9 hPa 0,0 mm W 4,5 km/h (1 Bft)
11.09.2018 21:00 15,9 C 85 % 1024,6 hPa 0,0 mm W 4,7 km/h (1 Bft)
11.09.2018 22:00 14,9 C 87 % 1024,8 hPa 0,0 mm W 4,1 km/h (1 Bft)
11.09.2018 23:00 13,9 C 88 % 1024,8 hPa 0,0 mm W 2,8 km/h (1 Bft)
12.09.2018 00:00 13,1 C 89 % 1024,8 hPa 0,0 mm W 2,9 km/h (1 Bft)
12.09.2018 01:00 12,2 C 91 % 1024,8 hPa 0,0 mm W 0,8 km/h (0 Bft)
12.09.2018 02:00 11,7 C 91 % 1024,5 hPa 0,0 mm W 2,3 km/h (1 Bft)
12.09.2018 03:00 11,3 C 91 % 1024,2 hPa 0,0 mm W 1,3 km/h (1 Bft)
12.09.2018 04:00 10,7 C 92 % 1024,2 hPa 0,0 mm W 1,1 km/h (0 Bft)
12.09.2018 05:00 10,3 C 92 % 1023,7 hPa 0,0 mm W 1,3 km/h (1 Bft)
12.09.2018 06:00 9,8 C 92 % 1023,2 hPa 0,0 mm W 0,5 km/h (0 Bft)
12.09.2018 07:00 11,3 C 92 % 1023,0 hPa 0,0 mm W 1,1 km/h (0 Bft)
12.09.2018 08:00 15,8 C 84 % 1022,6 hPa 0,0 mm W 0,7 km/h (0 Bft)
12.09.2018 09:00 18,2 C 78 % 1022,2 hPa 0,0 mm W 2,0 km/h (1 Bft)
12.09.2018 10:00 20,7 C 69 % 1022,4 hPa 0,0 mm O-SO 3,3 km/h (1 Bft)
12.09.2018 11:00 23,3 C 60 % 1022,3 hPa 0,0 mm O-SO 3,5 km/h (1 Bft)
12.09.2018 12:00 26,2 C 50 % 1022,1 hPa 0,0 mm W-NW 7,1 km/h (2 Bft)
12.09.2018 13:00 27,2 C 49 % 1021,8 hPa 0,0 mm W 11,1 km/h (2 Bft)
12.09.2018 14:00 27,1 C 46 % 1021,2 hPa 0,0 mm W 11,4 km/h (2 Bft)
12.09.2018 15:00 26,6 C 44 % 1020,6 hPa 0,0 mm W 10,2 km/h (2 Bft)
12.09.2018 16:00 26,6 C 41 % 1020,0 hPa 0,0 mm W 10,8 km/h (2 Bft)
12.09.2018 17:00 25,9 C 45 % 1019,5 hPa 0,0 mm W 4,7 km/h (1 Bft)
12.09.2018 18:00 23,0 C 60 % 1019,0 hPa 0,0 mm W 0,8 km/h (0 Bft)
12.09.2018 19:00 19,3 C 74 % 1018,9 hPa 0,0 mm W 1,3 km/h (1 Bft)
12.09.2018 20:00 16,9 C 80 % 1019,1 hPa 0,0 mm W 4,3 km/h (1 Bft)
12.09.2018 21:00 15,8 C 82 % 1019,4 hPa 0,0 mm W 3,2 km/h (1 Bft)
12.09.2018 22:00 14,8 C 84 % 1019,7 hPa 0,0 mm W 2,8 km/h (1 Bft)
12.09.2018 23:00 14,4 C 86 % 1019,5 hPa 0,0 mm W 2,7 km/h (1 Bft)
13.09.2018 00:00 14,4 C 86 % 1019,3 hPa 0,0 mm W 2,7 km/h (1 Bft)
13.09.2018 01:00 14,3 C 88 % 1018,9 hPa 0,0 mm W 1,1 km/h (0 Bft)
13.09.2018 02:00 14,4 C 88 % 1018,4 hPa 0,0 mm W 1,1 km/h (0 Bft)
13.09.2018 03:00 13,9 C 89 % 1017,8 hPa 0,0 mm W 0,7 km/h (0 Bft)
13.09.2018 04:00 13,4 C 90 % 1017,3 hPa 0,0 mm W 1,5 km/h (1 Bft)
13.09.2018 05:00 12,8 C 90 % 1016,9 hPa 0,0 mm W 2,3 km/h (1 Bft)
13.09.2018 06:00 12,0 C 91 % 1016,9 hPa 0,0 mm W 0,9 km/h (0 Bft)
13.09.2018 07:00 13,3 C 90 % 1017,2 hPa 0,0 mm W 6,6 km/h (2 Bft)
13.09.2018 08:00 16,7 C 84 % 1017,7 hPa 0,0 mm W 5,9 km/h (2 Bft)
13.09.2018 09:00 21,6 C 69 % 1017,5 hPa 0,0 mm W 8,0 km/h (2 Bft)
13.09.2018 10:00 22,8 C 63 % 1017,5 hPa 0,0 mm W 14,2 km/h (3 Bft)
13.09.2018 11:00 22,9 C 65 % 1017,4 hPa 0,0 mm W 9,9 km/h (2 Bft)
13.09.2018 12:00 24,9 C 60 % 1016,8 hPa 0,0 mm W 11,0 km/h (2 Bft)
13.09.2018 13:00 25,1 C 59 % 1016,4 hPa 0,0 mm W 14,1 km/h (3 Bft)
13.09.2018 14:00 25,0 C 59 % 1015,8 hPa 0,0 mm W 14,2 km/h (3 Bft)
13.09.2018 15:00 24,9 C 59 % 1015,2 hPa 0,0 mm W 14,0 km/h (3 Bft)
13.09.2018 16:00 24,7 C 61 % 1014,8 hPa 0,0 mm W 12,5 km/h (3 Bft)
13.09.2018 17:00 24,4 C 65 % 1014,6 hPa 0,0 mm W 10,5 km/h (2 Bft)
13.09.2018 18:00 23,0 C 71 % 1014,7 hPa 0,0 mm W 6,6 km/h (2 Bft)
13.09.2018 19:00 20,3 C 84 % 1014,8 hPa 0,8 mm W 3,6 km/h (1 Bft)
13.09.2018 20:00 18,8 C 89 % 1015,4 hPa 0,0 mm W 6,6 km/h (2 Bft)
13.09.2018 21:00 16,9 C 89 % 1016,7 hPa 14,0 mm O-SO 9,1 km/h (2 Bft)
13.09.2018 22:00 15,9 C 91 % 1017,4 hPa 14,8 mm W 5,5 km/h (1 Bft)
13.09.2018 23:00 15,5 C 92 % 1017,0 hPa 2,4 mm O-NO 7,4 km/h (2 Bft)
14.09.2018 00:00 15,6 C 92 % 1016,8 hPa 0,0 mm W-NW 2,5 km/h (1 Bft)
14.09.2018 01:00 15,4 C 92 % 1016,9 hPa 0,2 mm W-NW 1,6 km/h (1 Bft)
14.09.2018 02:00 15,6 C 92 % 1016,9 hPa 0,0 mm W-NW 1,2 km/h (1 Bft)
14.09.2018 03:00 15,5 C 92 % 1016,6 hPa 0,0 mm W 4,5 km/h (1 Bft)
14.09.2018 04:00 15,4 C 92 % 1016,4 hPa 0,0 mm W 2,4 km/h (1 Bft)
14.09.2018 05:00 15,6 C 92 % 1016,4 hPa 0,0 mm W 1,2 km/h (1 Bft)
14.09.2018 06:00 15,4 C 92 % 1016,5 hPa 0,0 mm W 0,8 km/h (0 Bft)
14.09.2018 07:00 15,6 C 92 % 1016,7 hPa 0,2 mm W 1,2 km/h (1 Bft)
14.09.2018 08:00 15,1 C 92 % 1017,3 hPa 0,4 mm W 13,8 km/h (3 Bft)
14.09.2018 09:00 14,5 C 92 % 1018,3 hPa 1,4 mm W 12,5 km/h (3 Bft)
14.09.2018 10:00 14,6 C 92 % 1019,1 hPa 1,0 mm W 5,5 km/h (1 Bft)
14.09.2018 11:00 14,8 C 92 % 1019,7 hPa 0,4 mm W 8,2 km/h (2 Bft)
14.09.2018 12:00 15,0 C 92 % 1019,8 hPa 1,2 mm W 5,6 km/h (1 Bft)
14.09.2018 13:00 16,0 C 92 % 1019,7 hPa 0,2 mm W 7,5 km/h (2 Bft)
14.09.2018 14:00 17,1 C 89 % 1019,4 hPa 0,0 mm W 12,4 km/h (3 Bft)
14.09.2018 15:00 17,4 C 86 % 1019,2 hPa 0,0 mm W 7,1 km/h (2 Bft)
14.09.2018 16:00 18,0 C 84 % 1019,1 hPa 0,0 mm W 7,6 km/h (2 Bft)
14.09.2018 17:00 17,7 C 86 % 1019,1 hPa 0,0 mm W 5,7 km/h (1 Bft)
14.09.2018 18:00 17,0 C 87 % 1019,1 hPa 0,0 mm W 1,7 km/h (1 Bft)
14.09.2018 19:00 15,3 C 90 % 1019,1 hPa 0,0 mm W 0,5 km/h (0 Bft)
14.09.2018 20:00 13,8 C 92 % 1019,7 hPa 0,0 mm W 1,6 km/h (1 Bft)
14.09.2018 21:00 12,8 C 92 % 1020,2 hPa 0,0 mm W 1,1 km/h (0 Bft)
14.09.2018 22:00 12,4 C 93 % 1020,3 hPa 0,0 mm W 0,8 km/h (0 Bft)
14.09.2018 23:00 13,0 C 93 % 1020,4 hPa 0,0 mm W 1,3 km/h (1 Bft)
15.09.2018 00:00 12,7 C 93 % 1020,4 hPa 0,0 mm W 0,3 km/h (0 Bft)
15.09.2018 01:00 13,1 C 93 % 1020,5 hPa 0,0 mm W 1,2 km/h (1 Bft)
15.09.2018 02:00 12,9 C 93 % 1020,7 hPa 0,0 mm W 0,0 km/h (0 Bft)
15.09.2018 03:00 12,8 C 93 % 1020,4 hPa 0,0 mm W 0,0 km/h (0 Bft)
15.09.2018 04:00 12,9 C 93 % 1020,4 hPa 0,0 mm W 0,0 km/h (0 Bft)
15.09.2018 05:00 12,6 C 93 % 1020,7 hPa 0,0 mm W 0,0 km/h (0 Bft)
15.09.2018 06:00 12,7 C 93 % 1021,0 hPa 0,0 mm W 0,0 km/h (0 Bft)
15.09.2018 07:00 12,7 C 93 % 1021,5 hPa 0,0 mm W 0,7 km/h (0 Bft)
15.09.2018 08:00 14,0 C 93 % 1022,1 hPa 0,0 mm W 0,8 km/h (0 Bft)
15.09.2018 09:00 17,9 C 87 % 1022,4 hPa 0,0 mm W-SW 3,5 km/h (1 Bft)
15.09.2018 10:00 19,5 C 79 % 1022,7 hPa 0,0 mm W 11,6 km/h (2 Bft)
15.09.2018 11:00 19,9 C 79 % 1023,0 hPa 0,0 mm W 12,6 km/h (3 Bft)
15.09.2018 12:00 19,4 C 81 % 1023,2 hPa 0,0 mm W 10,9 km/h (2 Bft)
15.09.2018 13:00 20,0 C 79 % 1023,2 hPa 0,0 mm W 10,6 km/h (2 Bft)
15.09.2018 14:00 19,7 C 78 % 1023,0 hPa 0,0 mm W 11,4 km/h (2 Bft)
15.09.2018 15:00 20,1 C 75 % 1022,7 hPa 0,0 mm W 9,8 km/h (2 Bft)
15.09.2018 16:00 20,3 C 71 % 1022,6 hPa 0,0 mm W 10,6 km/h (2 Bft)
15.09.2018 17:00 19,9 C 73 % 1022,6 hPa 0,0 mm W 9,1 km/h (2 Bft)
15.09.2018 18:00 18,4 C 82 % 1022,9 hPa 0,0 mm W 1,9 km/h (1 Bft)
15.09.2018 19:00 17,3 C 87 % 1023,3 hPa 0,0 mm W 0,0 km/h (0 Bft)
15.09.2018 20:00 16,5 C 89 % 1023,8 hPa 0,0 mm W 0,3 km/h (0 Bft)
15.09.2018 21:00 15,7 C 90 % 1024,2 hPa 0,0 mm W 1,9 km/h (1 Bft)
15.09.2018 22:00 15,8 C 90 % 1024,4 hPa 0,0 mm W 2,5 km/h (1 Bft)
15.09.2018 23:00 15,8 C 90 % 1024,7 hPa 0,0 mm W 1,2 km/h (1 Bft)
16.09.2018 00:00 15,3 C 91 % 1024,6 hPa 0,0 mm W 0,4 km/h (0 Bft)
16.09.2018 01:00 15,2 C 91 % 1024,4 hPa 0,0 mm W 0,1 km/h (0 Bft)
16.09.2018 02:00 14,6 C 92 % 1024,1 hPa 0,0 mm W 0,1 km/h (0 Bft)
16.09.2018 03:00 13,4 C 92 % 1023,8 hPa 0,0 mm W 0,0 km/h (0 Bft)
16.09.2018 04:00 12,2 C 92 % 1023,5 hPa 0,0 mm W 0,0 km/h (0 Bft)
16.09.2018 05:00 11,9 C 92 % 1023,3 hPa 0,0 mm W 0,8 km/h (0 Bft)
16.09.2018 06:00 11,8 C 92 % 1023,2 hPa 0,0 mm W 0,0 km/h (0 Bft)
16.09.2018 07:00 12,6 C 93 % 1023,3 hPa 0,0 mm W 0,0 km/h (0 Bft)
16.09.2018 08:00 13,9 C 93 % 1023,1 hPa 0,0 mm W 2,5 km/h (1 Bft)
16.09.2018 09:00 15,8 C 91 % 1022,9 hPa 0,0 mm O 7,9 km/h (2 Bft)
16.09.2018 10:00 17,8 C 86 % 1022,8 hPa 0,0 mm O 10,3 km/h (2 Bft)
16.09.2018 11:00 19,4 C 80 % 1022,6 hPa 0,0 mm O-NO 12,1 km/h (2 Bft)
16.09.2018 12:00 20,8 C 77 % 1022,0 hPa 0,0 mm O 13,3 km/h (3 Bft)
16.09.2018 13:00 21,5 C 77 % 1021,4 hPa 0,0 mm O 13,6 km/h (3 Bft)
16.09.2018 14:00 22,0 C 76 % 1020,9 hPa 0,0 mm O-SO 13,6 km/h (3 Bft)
16.09.2018 15:00 22,3 C 76 % 1020,4 hPa 0,0 mm O 13,4 km/h (3 Bft)
16.09.2018 16:00 22,3 C 76 % 1019,9 hPa 0,0 mm O-SO 12,1 km/h (2 Bft)
16.09.2018 17:00 21,6 C 78 % 1019,7 hPa 0,0 mm O-SO 10,7 km/h (2 Bft)
16.09.2018 18:00 19,9 C 83 % 1019,6 hPa 0,0 mm O 5,1 km/h (1 Bft)
16.09.2018 19:00 17,9 C 87 % 1019,9 hPa 0,2 mm O 0,5 km/h (0 Bft)
16.09.2018 20:00 16,1 C 90 % 1020,5 hPa 0,0 mm O-SO 0,1 km/h (0 Bft)
16.09.2018 21:00 15,1 C 91 % 1020,9 hPa 0,0 mm O-SO 0,0 km/h (0 Bft)
16.09.2018 22:00 14,2 C 92 % 1021,2 hPa 0,0 mm O-SO 1,3 km/h (1 Bft)
16.09.2018 23:00 13,9 C 92 % 1021,2 hPa 0,0 mm O-SO 1,6 km/h (1 Bft)
Min-Datum _ 10.09.18 12.09.18 13.09.18 - - 10.09.18
_ Min-Zeit 06:15 17:10 17:20 - - 00:10
Minimum _ 8,6 C 37 % 1014,5 hPa - - 0,0 km/h (0 Bft)
Max-Datum _ 12.09.18 10.09.18 11.09.18 13.09.18 - 13.09.18
_ Max-Zeit 13:00 04:50 10:20 22:05 - 20:50
Maximum _ 27,5 C 93 % 1025,6 hPa 14,8 mm - 25,7 km/h
W (4 Bft)
Durchschnitt _ 17,1 C 81 % 1021,3 hPa #37,6 mm W 4,8 km/h (1 Bft)